createdAt,value
2023-04-30T00:09:59.626Z,9.10
2023-04-30T00:12:32.624Z,9.00
2023-04-30T00:33:14.958Z,8.80
2023-04-30T00:41:56.003Z,8.80
2023-04-30T00:44:58.264Z,8.70
2023-04-30T00:55:19.170Z,8.70
2023-04-30T00:55:35.460Z,8.70
2023-04-30T01:09:52.897Z,8.60
2023-04-30T01:17:05.033Z,8.60
2023-04-30T01:19:48.018Z,8.50
2023-04-30T01:22:57.111Z,8.40
2023-04-30T01:26:21.394Z,8.50
2023-04-30T01:28:57.763Z,8.40
2023-04-30T01:31:32.127Z,8.30
2023-04-30T01:39:04.017Z,8.30
2023-04-30T01:41:40.699Z,8.20
2023-04-30T01:52:15.325Z,8.20
2023-04-30T01:58:10.379Z,8.10
2023-04-30T02:02:10.211Z,8.00
2023-04-30T02:17:12.662Z,8.00
2023-04-30T02:25:34.513Z,8.10
2023-04-30T02:31:48.891Z,8.00
2023-04-30T02:36:04.771Z,8.00
2023-04-30T02:41:38.718Z,8.00
2023-04-30T02:49:47.160Z,7.90
2023-04-30T02:56:22.700Z,7.90
2023-04-30T03:08:41.494Z,7.80
2023-04-30T03:15:09.825Z,7.70
2023-04-30T03:24:09.307Z,7.70
2023-04-30T03:26:40.562Z,7.70
2023-04-30T03:34:18.582Z,7.70
2023-04-30T03:40:44.131Z,7.60
2023-04-30T03:44:02.018Z,7.60
2023-04-30T04:04:55.468Z,7.40
2023-04-30T04:08:01.300Z,7.40
2023-04-30T04:10:52.307Z,7.40
2023-04-30T04:28:16.098Z,7.40
2023-04-30T04:36:11.276Z,7.30
2023-04-30T04:49:08.898Z,7.30
2023-04-30T05:00:11.551Z,7.30
2023-04-30T05:05:52.867Z,7.40
2023-04-30T06:21:47.783Z,9.30
2023-04-30T06:26:01.957Z,9.50
2023-04-30T06:40:20.193Z,10.00
2023-04-30T06:43:00.865Z,10.00
2023-04-30T06:45:56.674Z,10.10
2023-04-30T06:48:29.762Z,10.20
2023-04-30T06:52:10.269Z,10.30
2023-04-30T06:55:18.396Z,10.40
2023-04-30T06:58:10.207Z,10.50
2023-04-30T07:01:45.411Z,10.60
2023-04-30T07:04:21.769Z,10.70
2023-04-30T07:07:15.771Z,10.70
2023-04-30T07:13:42.784Z,10.90
2023-04-30T07:16:21.048Z,11.00
2023-04-30T07:19:01.635Z,11.10
2023-04-30T07:21:35.292Z,11.30
2023-04-30T07:24:46.678Z,11.40
2023-04-30T07:28:29.703Z,11.50
2023-04-30T07:31:29.759Z,11.60
2023-04-30T07:47:11.807Z,11.90
2023-04-30T07:53:02.187Z,12.00
2023-04-30T07:53:10.290Z,12.00
2023-04-30T07:56:44.549Z,12.00
2023-04-30T08:00:08.082Z,12.20
2023-04-30T08:07:59.376Z,12.50
2023-04-30T08:10:40.999Z,12.60
2023-04-30T08:13:49.208Z,12.70
2023-04-30T08:16:50.919Z,12.80
2023-04-30T08:22:12.386Z,13.00
2023-04-30T08:25:05.372Z,13.20
2023-04-30T08:31:47.349Z,13.40
2023-04-30T08:51:11.307Z,13.70
2023-04-30T08:57:02.011Z,13.90
2023-04-30T08:59:36.943Z,13.90
2023-04-30T09:03:00.611Z,14.00
2023-04-30T09:05:39.401Z,14.20
2023-04-30T09:09:27.726Z,14.30
2023-04-30T09:11:53.116Z,14.40
2023-04-30T09:14:50.691Z,14.50
2023-04-30T09:25:59.049Z,14.70
2023-04-30T09:28:31.969Z,14.80
2023-04-30T09:31:03.470Z,14.90
2023-04-30T09:38:38.166Z,14.90
2023-04-30T09:45:12.739Z,14.90
2023-04-30T09:56:26.205Z,15.10
2023-04-30T10:12:15.752Z,15.50
2023-04-30T10:14:55.663Z,15.70
2023-04-30T10:17:41.160Z,15.90
2023-04-30T10:20:28.559Z,16.00
2023-04-30T10:23:33.472Z,16.20
2023-04-30T10:26:08.140Z,16.40
2023-04-30T10:29:01.345Z,16.50
2023-04-30T10:31:34.169Z,16.80
2023-04-30T10:34:41.639Z,17.00
2023-04-30T10:37:30.157Z,17.20
2023-04-30T10:40:00.294Z,17.40
2023-04-30T10:42:34.437Z,17.50
2023-04-30T10:45:12.942Z,17.70
2023-04-30T10:48:27.982Z,17.90
2023-04-30T10:51:10.531Z,18.00
2023-04-30T10:53:50.230Z,18.10
2023-04-30T10:56:52.532Z,18.30
2023-04-30T11:04:40.022Z,18.40
2023-04-30T11:12:50.206Z,18.80
2023-04-30T11:16:40.693Z,19.00
2023-04-30T11:24:31.107Z,19.30
2023-04-30T11:27:29.621Z,19.50
2023-04-30T11:30:32.060Z,19.50
2023-04-30T11:33:12.939Z,19.70
2023-04-30T11:35:55.045Z,19.80
2023-04-30T11:38:41.586Z,19.70
2023-04-30T11:49:58.125Z,20.00
2023-04-30T11:54:10.891Z,20.20
2023-04-30T11:56:51.415Z,20.40
2023-04-30T11:59:44.621Z,20.50
2023-04-30T12:02:29.561Z,20.70
2023-04-30T12:05:42.382Z,20.80
2023-04-30T12:08:21.233Z,20.90
2023-04-30T12:10:56.138Z,21.10
2023-04-30T12:13:29.686Z,21.20
2023-04-30T12:16:01.040Z,21.40
2023-04-30T12:18:31.178Z,21.70
2023-04-30T12:21:01.222Z,21.90
2023-04-30T12:23:31.702Z,22.20
2023-04-30T12:26:02.021Z,22.40
2023-04-30T12:28:32.112Z,22.60
2023-04-30T12:31:02.556Z,22.70
2023-04-30T12:33:32.431Z,22.90
2023-04-30T12:35:59.746Z,23.00
2023-04-30T12:38:27.168Z,23.10
2023-04-30T12:40:58.024Z,23.20
2023-04-30T12:43:25.400Z,23.30
2023-04-30T12:46:01.340Z,23.40
2023-04-30T12:48:31.670Z,23.70
2023-04-30T12:51:03.427Z,24.00
2023-04-30T12:53:31.766Z,24.20
2023-04-30T12:56:10.118Z,24.40
2023-04-30T12:58:40.063Z,24.60
2023-04-30T13:01:13.690Z,24.80
2023-04-30T13:03:41.760Z,25.00
2023-04-30T13:06:10.344Z,25.10
2023-04-30T13:08:56.173Z,25.30
2023-04-30T13:12:01.117Z,25.40
2023-04-30T13:14:31.328Z,25.60
2023-04-30T13:17:08.583Z,25.60
2023-04-30T13:20:40.614Z,25.70
2023-04-30T13:24:45.994Z,25.80
2023-04-30T13:28:52.883Z,25.70
2023-04-30T13:34:43.913Z,25.00
2023-04-30T13:41:52.717Z,24.50
2023-04-30T13:50:20.545Z,24.60
2023-04-30T14:06:20.589Z,25.90
2023-04-30T14:10:12.537Z,25.60
2023-04-30T14:12:41.671Z,25.10
2023-04-30T14:15:09.386Z,25.40
2023-04-30T14:18:40.697Z,25.90
2023-04-30T14:21:10.881Z,26.80
2023-04-30T14:23:49.903Z,27.50
2023-04-30T14:26:23.088Z,27.80
2023-04-30T14:29:12.456Z,28.10
2023-04-30T14:31:42.362Z,28.30
2023-04-30T14:35:58.738Z,28.30
2023-04-30T14:42:13.931Z,28.80
2023-04-30T14:45:05.967Z,28.30
2023-04-30T14:47:33.738Z,27.40
2023-04-30T14:50:10.858Z,27.40
2023-04-30T14:53:33.093Z,27.60
2023-04-30T14:56:22.210Z,27.80
2023-04-30T14:58:59.727Z,27.80
2023-04-30T15:01:30.980Z,28.10
2023-04-30T15:04:10.177Z,28.10
2023-04-30T15:07:10.058Z,28.10
2023-04-30T15:11:02.560Z,28.40
2023-04-30T15:13:33.083Z,29.00
2023-04-30T15:16:07.684Z,28.90
2023-04-30T15:18:45.915Z,28.80
2023-04-30T15:22:11.033Z,29.00
2023-04-30T15:29:53.121Z,28.00
2023-04-30T15:32:27.229Z,27.40
2023-04-30T15:34:55.544Z,27.60
2023-04-30T15:42:05.408Z,27.90
2023-04-30T15:45:06.974Z,28.30
2023-04-30T15:48:59.513Z,28.30
2023-04-30T15:51:50.283Z,28.30
2023-04-30T15:54:19.959Z,28.40
2023-04-30T15:56:51.723Z,28.90
2023-04-30T15:59:21.216Z,29.50
2023-04-30T16:05:09.041Z,30.20
2023-04-30T16:07:43.065Z,30.30
2023-04-30T16:17:31.323Z,25.90
2023-04-30T16:20:08.982Z,26.40
2023-04-30T16:22:46.340Z,27.10
2023-04-30T16:25:21.119Z,27.70
2023-04-30T16:27:54.011Z,28.40
2023-04-30T16:30:21.188Z,28.80
2023-04-30T16:33:20.248Z,28.90
2023-04-30T16:35:49.996Z,29.00
2023-04-30T16:38:45.464Z,28.60
2023-04-30T16:44:28.465Z,28.10
2023-04-30T16:47:04.910Z,28.00
2023-04-30T16:50:11.522Z,28.00
2023-04-30T16:57:07.368Z,28.20
2023-04-30T16:59:43.170Z,27.90
2023-04-30T17:02:21.608Z,28.00
2023-04-30T17:04:51.479Z,28.00
2023-04-30T17:07:22.732Z,28.00
2023-04-30T17:09:53.022Z,27.60
2023-04-30T17:12:29.947Z,27.10
2023-04-30T17:14:59.759Z,26.50
2023-04-30T17:17:29.703Z,26.10
2023-04-30T17:20:00.121Z,25.80
2023-04-30T17:22:29.806Z,25.50
2023-04-30T17:25:02.385Z,25.20
2023-04-30T17:27:31.549Z,24.80
2023-04-30T17:30:37.270Z,24.30
2023-04-30T17:33:07.475Z,23.90
2023-04-30T17:36:52.558Z,23.40
2023-04-30T17:39:19.688Z,23.10
2023-04-30T17:42:12.977Z,23.50
2023-04-30T17:44:49.115Z,24.00
2023-04-30T17:47:27.790Z,23.80
2023-04-30T17:49:59.615Z,23.10
2023-04-30T17:52:26.965Z,22.40
2023-04-30T17:59:07.598Z,21.10
2023-04-30T18:01:42.361Z,20.40
2023-04-30T18:04:26.320Z,20.00
2023-04-30T18:07:20.637Z,19.70
2023-04-30T18:10:00.526Z,19.50
2023-04-30T18:12:31.060Z,19.10
2023-04-30T18:14:59.580Z,18.90
2023-04-30T18:17:29.382Z,18.70
2023-04-30T18:19:58.984Z,18.50
2023-04-30T18:22:31.162Z,18.40
2023-04-30T18:25:42.420Z,18.20
2023-04-30T18:28:36.784Z,18.10
2023-04-30T18:31:09.577Z,17.90
2023-04-30T18:33:41.223Z,17.80
2023-04-30T18:36:08.617Z,17.70
2023-04-30T18:38:39.035Z,17.60
2023-04-30T18:41:09.723Z,17.50
2023-04-30T18:43:40.906Z,17.30
2023-04-30T18:46:09.581Z,17.20
2023-04-30T18:48:39.778Z,17.10
2023-04-30T18:51:20.412Z,17.00
2023-04-30T18:53:50.785Z,16.90
2023-04-30T18:56:21.178Z,16.80
2023-04-30T18:59:01.418Z,16.80
2023-04-30T19:06:40.090Z,16.50
2023-04-30T19:09:38.800Z,16.40
2023-04-30T19:12:12.708Z,16.30
2023-04-30T19:14:48.204Z,16.10
2023-04-30T19:17:22.468Z,16.10
2023-04-30T19:19:50.415Z,15.90
2023-04-30T19:22:31.600Z,15.90
2023-04-30T19:25:02.057Z,15.80
2023-04-30T19:27:32.239Z,15.70
2023-04-30T19:30:02.811Z,15.70
2023-04-30T19:33:03.897Z,15.60
2023-04-30T19:35:31.870Z,15.60
2023-04-30T19:41:12.939Z,15.40
2023-04-30T19:43:40.947Z,15.30
2023-04-30T19:46:08.201Z,15.30
2023-04-30T19:48:39.910Z,15.20
2023-04-30T19:51:09.390Z,15.20
2023-04-30T19:53:36.669Z,15.10
2023-04-30T19:56:03.840Z,15.10
2023-04-30T19:58:38.208Z,15.00
2023-04-30T20:01:18.393Z,15.00
2023-04-30T20:03:45.776Z,14.80
2023-04-30T20:06:25.934Z,14.80
2023-04-30T20:09:49.781Z,14.80
2023-04-30T20:12:20.665Z,14.70
2023-04-30T20:15:01.010Z,14.60
2023-04-30T20:17:50.862Z,14.50
2023-04-30T20:20:39.520Z,14.50
2023-04-30T20:23:20.473Z,14.50
2023-04-30T20:25:50.388Z,14.50
2023-04-30T20:28:20.560Z,14.40
2023-04-30T20:30:50.582Z,14.40
2023-04-30T20:33:20.029Z,14.40
2023-04-30T20:35:50.128Z,14.30
2023-04-30T20:38:21.879Z,14.30
2023-04-30T20:40:52.180Z,14.30
2023-04-30T20:43:27.748Z,14.30
2023-04-30T20:46:30.152Z,14.30
2023-04-30T20:49:06.685Z,14.30
2023-04-30T20:51:34.223Z,14.20
2023-04-30T20:54:15.149Z,14.10
2023-04-30T20:56:45.118Z,14.10
2023-04-30T20:59:17.855Z,14.10
2023-04-30T21:01:44.941Z,14.10
2023-04-30T21:04:11.982Z,14.00
2023-04-30T21:06:43.098Z,14.00
2023-04-30T21:09:12.780Z,14.00
2023-04-30T21:11:40.531Z,14.00
2023-04-30T21:14:40.434Z,13.90
2023-04-30T21:17:10.863Z,13.90
2023-04-30T21:19:41.547Z,13.90
2023-04-30T21:22:08.737Z,13.80
2023-04-30T21:24:35.889Z,13.80
2023-04-30T21:27:04.331Z,13.70
2023-04-30T21:29:42.894Z,13.70
2023-04-30T21:32:16.569Z,13.70
2023-04-30T21:34:50.444Z,13.70
2023-04-30T21:38:01.958Z,13.60
2023-04-30T21:44:49.067Z,13.50
2023-04-30T21:47:33.490Z,13.50
2023-04-30T21:50:03.389Z,13.50
2023-04-30T21:53:06.981Z,13.40
2023-04-30T22:00:01.563Z,13.40
2023-04-30T22:02:32.826Z,13.30
2023-04-30T22:05:00.025Z,13.30
2023-04-30T22:07:30.025Z,13.30
2023-04-30T22:09:58.599Z,13.30
2023-04-30T22:12:25.838Z,13.20
2023-04-30T22:14:53.698Z,13.20
2023-04-30T22:17:21.196Z,13.20
2023-04-30T22:19:48.479Z,13.20
2023-04-30T22:22:15.824Z,13.20
2023-04-30T22:24:43.411Z,13.20
2023-04-30T22:27:24.262Z,13.10
2023-04-30T22:29:56.604Z,13.10
2023-04-30T22:37:31.284Z,13.10
2023-04-30T22:40:03.763Z,12.90
2023-04-30T22:42:31.465Z,12.90
2023-04-30T22:45:01.649Z,12.90
2023-04-30T22:47:34.745Z,12.80
2023-04-30T22:50:05.200Z,12.80
2023-04-30T22:52:35.198Z,12.80
2023-04-30T22:55:03.267Z,12.80
2023-04-30T22:57:30.498Z,12.70
2023-04-30T22:59:58.096Z,12.70
2023-04-30T23:02:26.426Z,12.70
2023-04-30T23:04:53.753Z,12.70
2023-04-30T23:07:20.801Z,12.60
2023-04-30T23:09:47.737Z,12.60
2023-04-30T23:12:14.988Z,12.60
2023-04-30T23:14:42.603Z,12.50
2023-04-30T23:19:50.763Z,12.50
2023-04-30T23:22:17.934Z,12.40
2023-04-30T23:24:48.145Z,12.40
2023-04-30T23:27:15.538Z,12.40
2023-04-30T23:29:42.994Z,12.40
2023-04-30T23:32:10.256Z,12.40
2023-04-30T23:34:37.520Z,12.40
2023-04-30T23:37:04.618Z,12.40
2023-04-30T23:39:32.487Z,12.30
2023-04-30T23:41:59.781Z,12.30
2023-04-30T23:44:26.931Z,12.30
2023-04-30T23:46:56.021Z,12.20
2023-04-30T23:49:25.056Z,12.20
2023-04-30T23:51:52.323Z,12.20
2023-04-30T23:54:19.521Z,12.20
2023-04-30T23:56:46.698Z,12.10
2023-04-30T23:59:17.143Z,12.10
